Terminal Aerodrome Forecast
Issued by NWS Brownsville, TX

Home | Current Version | Previous Version | Text Only | Print | Product List | Glossary On
Versions: 1 2 3 4 5 6 7 8 9 10 11 12 13 14 15
000
FTUS44 KBRO 210536
TAFBRO
TAF
KBRO 210536Z 2106/2206 16006KT P6SM VCSH SCT015
      TEMPO 2110/2113 BKN015
     FM211500 14014G20KT P6SM VCSH SCT030 BKN040
     FM220100 13012KT P6SM FEW050=

USA.gov is the U.S. government's official web portal to all federal, state and local government web resources and services.